Twin Falls, Idaho
Current Conditions -  °F | °C
As of 3:53 PM on Thursday 25 Dec 2014 (Local Time) from KTWF Reporting Station
Broken Clouds Broken Clouds  
Wind Chill: 16°   Ceiling: 12000
Heat Index: 31°   Visibility: 10mi
Dew Point: 22°   Wind: 30mph
Humidity: 69%   Direction: 260°W
Pressure: 29.82"   Gusts: 37mph
Location:  42.56°N, 114.46°W
Report Text: KTWF 252253Z AUTO 26026G32KT 10SM SCT080 SCT095 BKN120 M01/M06 A2982 RMK AO2 PK WND 26033/2229 SLP104 T10061056
Loading
Personal Weather Stations






























Interactive Weather Map New forecast layout! Learn more

10-Day Weather Forecast

Advertisements
Track Severe Weather on mobile